sensor_id;sensor_type;location;lat;lon;timestamp;P1;durP1;ratioP1;P2;durP2;ratioP2
68910;SDS011;55953;51.650;-0.522;2023-02-24T00:02:08;20.10;;;6.10;;
68910;SDS011;55953;51.650;-0.522;2023-02-24T00:04:37;14.50;;;5.60;;
68910;SDS011;55953;51.650;-0.522;2023-02-24T00:07:08;16.80;;;5.60;;
68910;SDS011;55953;51.650;-0.522;2023-02-24T00:09:38;15.70;;;5.80;;
68910;SDS011;55953;51.650;-0.522;2023-02-24T00:12:09;24.00;;;5.90;;
68910;SDS011;55953;51.650;-0.522;2023-02-24T00:14:43;16.30;;;5.30;;
68910;SDS011;55953;51.650;-0.522;2023-02-24T00:17:12;18.80;;;5.80;;
68910;SDS011;55953;51.650;-0.522;2023-02-24T00:19:41;20.40;;;5.70;;
68910;SDS011;55953;51.650;-0.522;2023-02-24T00:22:09;14.30;;;5.60;;
68910;SDS011;55953;51.650;-0.522;2023-02-24T00:24:37;20.50;;;5.30;;
68910;SDS011;55953;51.650;-0.522;2023-02-24T00:27:06;15.70;;;5.30;;
68910;SDS011;55953;51.650;-0.522;2023-02-24T00:29:35;13.20;;;5.10;;
68910;SDS011;55953;51.650;-0.522;2023-02-24T00:32:06;17.60;;;5.60;;
68910;SDS011;55953;51.650;-0.522;2023-02-24T00:34:39;13.60;;;4.90;;
68910;SDS011;55953;51.650;-0.522;2023-02-24T00:37:07;15.60;;;5.40;;
68910;SDS011;55953;51.650;-0.522;2023-02-24T00:39:37;15.70;;;5.20;;
68910;SDS011;55953;51.650;-0.522;2023-02-24T00:42:10;15.90;;;6.00;;
68910;SDS011;55953;51.650;-0.522;2023-02-24T00:44:40;17.80;;;5.60;;
68910;SDS011;55953;51.650;-0.522;2023-02-24T00:47:13;14.60;;;5.40;;
68910;SDS011;55953;51.650;-0.522;2023-02-24T00:49:44;13.80;;;5.10;;
68910;SDS011;55953;51.650;-0.522;2023-02-24T00:52:15;21.00;;;5.50;;
68910;SDS011;55953;51.650;-0.522;2023-02-24T00:54:47;14.60;;;4.80;;
68910;SDS011;55953;51.650;-0.522;2023-02-24T00:57:16;14.00;;;4.50;;
68910;SDS011;55953;51.650;-0.522;2023-02-24T00:59:47;15.30;;;5.60;;
68910;SDS011;55953;51.650;-0.522;2023-02-24T01:02:17;14.80;;;5.40;;
68910;SDS011;55953;51.650;-0.522;2023-02-24T01:04:46;14.00;;;4.70;;
68910;SDS011;55953;51.650;-0.522;2023-02-24T01:07:16;10.80;;;4.70;;
68910;SDS011;55953;51.650;-0.522;2023-02-24T01:09:44;18.00;;;5.50;;
68910;SDS011;55953;51.650;-0.522;2023-02-24T01:12:12;11.70;;;4.60;;
68910;SDS011;55953;51.650;-0.522;2023-02-24T01:15:09;14.60;;;4.80;;
68910;SDS011;55953;51.650;-0.522;2023-02-24T01:17:39;15.10;;;4.90;;
68910;SDS011;55953;51.650;-0.522;2023-02-24T01:20:08;12.50;;;4.50;;
68910;SDS011;55953;51.650;-0.522;2023-02-24T01:22:45;17.10;;;5.00;;
68910;SDS011;55953;51.650;-0.522;2023-02-24T01:25:16;17.50;;;5.00;;
68910;SDS011;55953;51.650;-0.522;2023-02-24T01:27:47;15.80;;;5.20;;
68910;SDS011;55953;51.650;-0.522;2023-02-24T01:30:15;17.20;;;4.60;;
68910;SDS011;55953;51.650;-0.522;2023-02-24T01:32:45;10.50;;;4.40;;
68910;SDS011;55953;51.650;-0.522;2023-02-24T01:35:14;14.30;;;4.90;;
68910;SDS011;55953;51.650;-0.522;2023-02-24T01:37:42;14.40;;;4.50;;
68910;SDS011;55953;51.650;-0.522;2023-02-24T01:40:13;18.60;;;4.90;;
68910;SDS011;55953;51.650;-0.522;2023-02-24T01:42:48;19.80;;;5.60;;
68910;SDS011;55953;51.650;-0.522;2023-02-24T01:45:23;16.90;;;4.50;;
68910;SDS011;55953;51.650;-0.522;2023-02-24T01:47:58;12.80;;;5.20;;
68910;SDS011;55953;51.650;-0.522;2023-02-24T01:50:31;19.30;;;5.80;;
68910;SDS011;55953;51.650;-0.522;2023-02-24T01:53:05;23.60;;;5.60;;
68910;SDS011;55953;51.650;-0.522;2023-02-24T01:55:44;16.40;;;5.30;;
68910;SDS011;55953;51.650;-0.522;2023-02-24T01:58:21;13.30;;;5.30;;
68910;SDS011;55953;51.650;-0.522;2023-02-24T02:00:54;19.30;;;5.50;;
68910;SDS011;55953;51.650;-0.522;2023-02-24T02:03:30;17.80;;;5.60;;
68910;SDS011;55953;51.650;-0.522;2023-02-24T02:06:09;14.40;;;4.50;;
68910;SDS011;55953;51.650;-0.522;2023-02-24T02:08:40;13.50;;;4.50;;
68910;SDS011;55953;51.650;-0.522;2023-02-24T02:11:12;15.10;;;4.70;;
68910;SDS011;55953;51.650;-0.522;2023-02-24T02:13:49;11.10;;;4.30;;
68910;SDS011;55953;51.650;-0.522;2023-02-24T02:22:40;13.50;;;4.40;;
68910;SDS011;55953;51.650;-0.522;2023-02-24T02:34:16;13.60;;;4.50;;
68910;SDS011;55953;51.650;-0.522;2023-02-24T02:42:29;18.90;;;4.40;;
68910;SDS011;55953;51.650;-0.522;2023-02-24T02:48:18;14.90;;;4.10;;
68910;SDS011;55953;51.650;-0.522;2023-02-24T02:51:03;10.60;;;4.60;;
68910;SDS011;55953;51.650;-0.522;2023-02-24T02:53:42;14.10;;;4.00;;
68910;SDS011;55953;51.650;-0.522;2023-02-24T02:56:21;11.70;;;3.70;;
68910;SDS011;55953;51.650;-0.522;2023-02-24T02:58:58;8.90;;;3.80;;
68910;SDS011;55953;51.650;-0.522;2023-02-24T03:01:30;11.00;;;3.40;;
68910;SDS011;55953;51.650;-0.522;2023-02-24T03:04:05;8.10;;;4.00;;
68910;SDS011;55953;51.650;-0.522;2023-02-24T03:06:43;10.50;;;3.80;;
68910;SDS011;55953;51.650;-0.522;2023-02-24T03:12:09;12.90;;;3.80;;
68910;SDS011;55953;51.650;-0.522;2023-02-24T03:14:48;10.80;;;4.10;;
68910;SDS011;55953;51.650;-0.522;2023-02-24T03:17:27;13.90;;;4.30;;
68910;SDS011;55953;51.650;-0.522;2023-02-24T03:20:40;12.00;;;4.40;;
68910;SDS011;55953;51.650;-0.522;2023-02-24T03:23:14;16.80;;;4.20;;
68910;SDS011;55953;51.650;-0.522;2023-02-24T03:25:52;15.20;;;4.40;;
68910;SDS011;55953;51.650;-0.522;2023-02-24T03:31:09;13.20;;;4.50;;
68910;SDS011;55953;51.650;-0.522;2023-02-24T03:33:53;12.20;;;4.10;;
68910;SDS011;55953;51.650;-0.522;2023-02-24T03:36:35;12.40;;;3.90;;
68910;SDS011;55953;51.650;-0.522;2023-02-24T03:39:04;13.80;;;4.10;;
68910;SDS011;55953;51.650;-0.522;2023-02-24T03:44:23;11.00;;;4.40;;
68910;SDS011;55953;51.650;-0.522;2023-02-24T03:46:52;10.50;;;4.00;;
68910;SDS011;55953;51.650;-0.522;2023-02-24T03:49:22;12.30;;;4.40;;
68910;SDS011;55953;51.650;-0.522;2023-02-24T03:55:15;15.80;;;4.30;;
68910;SDS011;55953;51.650;-0.522;2023-02-24T03:57:56;10.00;;;4.10;;
68910;SDS011;55953;51.650;-0.522;2023-02-24T04:09:28;15.80;;;4.60;;
68910;SDS011;55953;51.650;-0.522;2023-02-24T04:15:33;8.60;;;3.90;;
68910;SDS011;55953;51.650;-0.522;2023-02-24T04:18:25;11.90;;;4.10;;
68910;SDS011;55953;51.650;-0.522;2023-02-24T04:20:59;14.50;;;5.10;;
68910;SDS011;55953;51.650;-0.522;2023-02-24T04:23:39;10.80;;;3.90;;
68910;SDS011;55953;51.650;-0.522;2023-02-24T04:26:11;11.50;;;4.60;;
68910;SDS011;55953;51.650;-0.522;2023-02-24T04:28:43;11.70;;;3.80;;
68910;SDS011;55953;51.650;-0.522;2023-02-24T04:31:16;11.00;;;4.00;;
68910;SDS011;55953;51.650;-0.522;2023-02-24T04:33:47;9.80;;;3.50;;
68910;SDS011;55953;51.650;-0.522;2023-02-24T04:36:24;16.80;;;4.40;;
68910;SDS011;55953;51.650;-0.522;2023-02-24T04:38:52;9.20;;;3.70;;
68910;SDS011;55953;51.650;-0.522;2023-02-24T04:41:21;11.10;;;3.80;;
68910;SDS011;55953;51.650;-0.522;2023-02-24T04:43:50;9.20;;;3.80;;
68910;SDS011;55953;51.650;-0.522;2023-02-24T04:46:18;10.10;;;4.30;;
68910;SDS011;55953;51.650;-0.522;2023-02-24T04:48:46;13.80;;;4.60;;
68910;SDS011;55953;51.650;-0.522;2023-02-24T04:51:14;11.70;;;4.50;;
68910;SDS011;55953;51.650;-0.522;2023-02-24T04:53:42;9.10;;;4.10;;
68910;SDS011;55953;51.650;-0.522;2023-02-24T04:56:10;12.10;;;4.00;;
68910;SDS011;55953;51.650;-0.522;2023-02-24T04:58:38;12.40;;;4.20;;
68910;SDS011;55953;51.650;-0.522;2023-02-24T05:01:09;11.60;;;3.60;;
68910;SDS011;55953;51.650;-0.522;2023-02-24T05:03:38;9.50;;;3.80;;
68910;SDS011;55953;51.650;-0.522;2023-02-24T05:06:16;10.70;;;3.70;;
68910;SDS011;55953;51.650;-0.522;2023-02-24T05:08:44;7.60;;;3.60;;
68910;SDS011;55953;51.650;-0.522;2023-02-24T05:11:14;15.60;;;3.70;;
68910;SDS011;55953;51.650;-0.522;2023-02-24T05:13:44;9.00;;;4.10;;
68910;SDS011;55953;51.650;-0.522;2023-02-24T05:16:15;10.90;;;3.80;;
68910;SDS011;55953;51.650;-0.522;2023-02-24T05:18:44;9.60;;;3.70;;
68910;SDS011;55953;51.650;-0.522;2023-02-24T05:21:15;8.70;;;3.30;;
68910;SDS011;55953;51.650;-0.522;2023-02-24T05:24:02;11.00;;;4.10;;
68910;SDS011;55953;51.650;-0.522;2023-02-24T05:26:35;8.70;;;3.30;;
68910;SDS011;55953;51.650;-0.522;2023-02-24T05:29:05;11.30;;;3.50;;
68910;SDS011;55953;51.650;-0.522;2023-02-24T05:31:34;10.50;;;3.30;;
68910;SDS011;55953;51.650;-0.522;2023-02-24T05:34:05;7.50;;;3.40;;
68910;SDS011;55953;51.650;-0.522;2023-02-24T05:36:37;8.10;;;3.20;;
68910;SDS011;55953;51.650;-0.522;2023-02-24T05:39:07;10.20;;;3.60;;
68910;SDS011;55953;51.650;-0.522;2023-02-24T05:41:41;8.80;;;3.20;;
68910;SDS011;55953;51.650;-0.522;2023-02-24T05:44:20;10.10;;;3.00;;
68910;SDS011;55953;51.650;-0.522;2023-02-24T05:46:51;6.60;;;3.00;;
68910;SDS011;55953;51.650;-0.522;2023-02-24T05:49:28;14.50;;;3.10;;
68910;SDS011;55953;51.650;-0.522;2023-02-24T05:52:03;9.20;;;2.90;;
68910;SDS011;55953;51.650;-0.522;2023-02-24T05:54:39;8.60;;;2.90;;
68910;SDS011;55953;51.650;-0.522;2023-02-24T05:57:13;7.20;;;3.10;;
68910;SDS011;55953;51.650;-0.522;2023-02-24T05:59:52;6.40;;;2.60;;
68910;SDS011;55953;51.650;-0.522;2023-02-24T06:02:22;10.10;;;3.20;;
68910;SDS011;55953;51.650;-0.522;2023-02-24T06:04:54;5.80;;;2.40;;
68910;SDS011;55953;51.650;-0.522;2023-02-24T06:07:26;10.10;;;3.20;;
68910;SDS011;55953;51.650;-0.522;2023-02-24T06:12:31;12.70;;;3.40;;
68910;SDS011;55953;51.650;-0.522;2023-02-24T06:15:00;8.70;;;3.10;;
68910;SDS011;55953;51.650;-0.522;2023-02-24T06:17:34;9.30;;;3.20;;
68910;SDS011;55953;51.650;-0.522;2023-02-24T06:20:02;9.70;;;4.20;;
68910;SDS011;55953;51.650;-0.522;2023-02-24T06:22:42;11.30;;;3.20;;
68910;SDS011;55953;51.650;-0.522;2023-02-24T06:25:10;8.60;;;3.20;;
68910;SDS011;55953;51.650;-0.522;2023-02-24T06:27:38;11.90;;;4.00;;
68910;SDS011;55953;51.650;-0.522;2023-02-24T06:30:07;12.30;;;3.90;;
68910;SDS011;55953;51.650;-0.522;2023-02-24T06:32:37;10.70;;;3.60;;
68910;SDS011;55953;51.650;-0.522;2023-02-24T06:35:05;14.00;;;4.30;;
68910;SDS011;55953;51.650;-0.522;2023-02-24T06:37:33;14.40;;;4.50;;
68910;SDS011;55953;51.650;-0.522;2023-02-24T06:40:02;12.40;;;4.60;;
68910;SDS011;55953;51.650;-0.522;2023-02-24T06:42:47;10.10;;;4.90;;
68910;SDS011;55953;51.650;-0.522;2023-02-24T06:45:16;14.60;;;5.00;;
68910;SDS011;55953;51.650;-0.522;2023-02-24T06:47:44;13.30;;;4.80;;
68910;SDS011;55953;51.650;-0.522;2023-02-24T06:50:16;11.50;;;4.50;;
68910;SDS011;55953;51.650;-0.522;2023-02-24T06:52:49;11.60;;;4.40;;
68910;SDS011;55953;51.650;-0.522;2023-02-24T06:55:21;9.40;;;4.00;;
68910;SDS011;55953;51.650;-0.522;2023-02-24T07:00:30;7.90;;;3.80;;
68910;SDS011;55953;51.650;-0.522;2023-02-24T07:03:08;11.00;;;3.80;;
68910;SDS011;55953;51.650;-0.522;2023-02-24T07:05:45;10.20;;;4.20;;
68910;SDS011;55953;51.650;-0.522;2023-02-24T07:08:19;13.40;;;4.30;;
68910;SDS011;55953;51.650;-0.522;2023-02-24T07:10:56;9.10;;;3.90;;
68910;SDS011;55953;51.650;-0.522;2023-02-24T07:13:26;8.50;;;3.60;;
68910;SDS011;55953;51.650;-0.522;2023-02-24T07:16:01;10.50;;;4.20;;
68910;SDS011;55953;51.650;-0.522;2023-02-24T07:18:34;11.50;;;3.50;;
68910;SDS011;55953;51.650;-0.522;2023-02-24T07:21:04;9.90;;;3.90;;
68910;SDS011;55953;51.650;-0.522;2023-02-24T07:23:39;8.50;;;3.40;;
68910;SDS011;55953;51.650;-0.522;2023-02-24T07:26:13;10.00;;;3.60;;
68910;SDS011;55953;51.650;-0.522;2023-02-24T07:28:44;8.80;;;3.50;;
68910;SDS011;55953;51.650;-0.522;2023-02-24T07:31:17;6.00;;;3.10;;
68910;SDS011;55953;51.650;-0.522;2023-02-24T07:33:50;8.10;;;2.90;;
68910;SDS011;55953;51.650;-0.522;2023-02-24T07:36:19;6.90;;;3.00;;
68910;SDS011;55953;51.650;-0.522;2023-02-24T07:38:51;9.40;;;3.00;;
68910;SDS011;55953;51.650;-0.522;2023-02-24T07:41:21;7.80;;;2.80;;
68910;SDS011;55953;51.650;-0.522;2023-02-24T07:43:51;9.90;;;3.20;;
68910;SDS011;55953;51.650;-0.522;2023-02-24T07:46:25;6.00;;;2.50;;
68910;SDS011;55953;51.650;-0.522;2023-02-24T07:48:57;8.10;;;2.70;;
68910;SDS011;55953;51.650;-0.522;2023-02-24T07:51:29;7.80;;;2.80;;
68910;SDS011;55953;51.650;-0.522;2023-02-24T07:53:59;10.00;;;2.90;;
68910;SDS011;55953;51.650;-0.522;2023-02-24T07:56:29;11.60;;;3.20;;
68910;SDS011;55953;51.650;-0.522;2023-02-24T07:59:04;8.30;;;2.90;;
68910;SDS011;55953;51.650;-0.522;2023-02-24T08:01:36;7.70;;;2.50;;
68910;SDS011;55953;51.650;-0.522;2023-02-24T08:04:09;6.40;;;3.00;;
68910;SDS011;55953;51.650;-0.522;2023-02-24T08:06:40;7.40;;;2.90;;
68910;SDS011;55953;51.650;-0.522;2023-02-24T08:09:17;8.00;;;2.70;;
68910;SDS011;55953;51.650;-0.522;2023-02-24T08:12:14;8.90;;;3.40;;
68910;SDS011;55953;51.650;-0.522;2023-02-24T08:14:50;10.10;;;3.00;;
68910;SDS011;55953;51.650;-0.522;2023-02-24T08:17:22;12.80;;;4.40;;
68910;SDS011;55953;51.650;-0.522;2023-02-24T08:19:54;10.50;;;3.80;;
68910;SDS011;55953;51.650;-0.522;2023-02-24T08:22:42;10.70;;;3.40;;
68910;SDS011;55953;51.650;-0.522;2023-02-24T08:25:14;25.60;;;4.30;;
68910;SDS011;55953;51.650;-0.522;2023-02-24T08:27:50;17.90;;;5.00;;
68910;SDS011;55953;51.650;-0.522;2023-02-24T08:30:41;8.40;;;3.80;;
68910;SDS011;55953;51.650;-0.522;2023-02-24T08:33:20;6.70;;;3.00;;
68910;SDS011;55953;51.650;-0.522;2023-02-24T08:35:52;8.40;;;3.30;;
68910;SDS011;55953;51.650;-0.522;2023-02-24T08:38:31;12.40;;;4.10;;
68910;SDS011;55953;51.650;-0.522;2023-02-24T08:41:14;9.00;;;3.40;;
68910;SDS011;55953;51.650;-0.522;2023-02-24T08:43:47;10.30;;;3.00;;
68910;SDS011;55953;51.650;-0.522;2023-02-24T08:46:21;9.30;;;3.20;;
68910;SDS011;55953;51.650;-0.522;2023-02-24T08:48:55;8.80;;;2.80;;
68910;SDS011;55953;51.650;-0.522;2023-02-24T08:51:33;7.70;;;3.20;;
68910;SDS011;55953;51.650;-0.522;2023-02-24T08:54:07;7.30;;;3.00;;
68910;SDS011;55953;51.650;-0.522;2023-02-24T08:56:44;9.30;;;3.30;;
68910;SDS011;55953;51.650;-0.522;2023-02-24T08:59:17;7.00;;;3.10;;
68910;SDS011;55953;51.650;-0.522;2023-02-24T09:02:16;7.90;;;2.60;;
68910;SDS011;55953;51.650;-0.522;2023-02-24T09:05:01;5.30;;;2.60;;
68910;SDS011;55953;51.650;-0.522;2023-02-24T09:07:36;7.30;;;3.00;;
68910;SDS011;55953;51.650;-0.522;2023-02-24T09:10:12;10.50;;;3.20;;
68910;SDS011;55953;51.650;-0.522;2023-02-24T09:12:44;6.30;;;2.80;;
68910;SDS011;55953;51.650;-0.522;2023-02-24T09:15:13;10.50;;;3.40;;
68910;SDS011;55953;51.650;-0.522;2023-02-24T09:17:44;8.30;;;3.30;;
68910;SDS011;55953;51.650;-0.522;2023-02-24T09:20:15;8.00;;;3.10;;
68910;SDS011;55953;51.650;-0.522;2023-02-24T09:22:56;12.20;;;3.30;;
68910;SDS011;55953;51.650;-0.522;2023-02-24T09:25:36;10.50;;;3.20;;
68910;SDS011;55953;51.650;-0.522;2023-02-24T09:28:11;13.80;;;4.20;;
68910;SDS011;55953;51.650;-0.522;2023-02-24T09:30:50;11.20;;;3.50;;
68910;SDS011;55953;51.650;-0.522;2023-02-24T09:33:35;13.60;;;4.20;;
68910;SDS011;55953;51.650;-0.522;2023-02-24T09:36:13;15.10;;;3.90;;
68910;SDS011;55953;51.650;-0.522;2023-02-24T09:38:58;11.70;;;3.60;;
68910;SDS011;55953;51.650;-0.522;2023-02-24T09:41:33;14.90;;;4.00;;
68910;SDS011;55953;51.650;-0.522;2023-02-24T09:44:39;8.30;;;3.70;;
68910;SDS011;55953;51.650;-0.522;2023-02-24T09:47:34;14.10;;;3.80;;
68910;SDS011;55953;51.650;-0.522;2023-02-24T09:53:11;13.70;;;4.30;;
68910;SDS011;55953;51.650;-0.522;2023-02-24T09:55:52;9.70;;;3.60;;
68910;SDS011;55953;51.650;-0.522;2023-02-24T09:58:56;11.10;;;4.00;;
68910;SDS011;55953;51.650;-0.522;2023-02-24T10:01:46;8.90;;;4.00;;
68910;SDS011;55953;51.650;-0.522;2023-02-24T10:07:22;10.20;;;3.60;;
68910;SDS011;55953;51.650;-0.522;2023-02-24T10:10:02;10.90;;;3.90;;
68910;SDS011;55953;51.650;-0.522;2023-02-24T10:12:51;11.20;;;4.50;;
68910;SDS011;55953;51.650;-0.522;2023-02-24T10:15:31;9.70;;;3.50;;
68910;SDS011;55953;51.650;-0.522;2023-02-24T10:19:09;6.60;;;3.30;;
68910;SDS011;55953;51.650;-0.522;2023-02-24T10:21:49;9.50;;;3.60;;
68910;SDS011;55953;51.650;-0.522;2023-02-24T10:24:40;10.20;;;4.10;;
68910;SDS011;55953;51.650;-0.522;2023-02-24T10:27:20;9.40;;;3.80;;
68910;SDS011;55953;51.650;-0.522;2023-02-24T10:32:48;12.60;;;4.20;;
68910;SDS011;55953;51.650;-0.522;2023-02-24T10:35:21;8.50;;;3.80;;
68910;SDS011;55953;51.650;-0.522;2023-02-24T10:37:52;7.20;;;3.90;;
68910;SDS011;55953;51.650;-0.522;2023-02-24T10:40:25;8.90;;;4.20;;
68910;SDS011;55953;51.650;-0.522;2023-02-24T10:43:17;11.30;;;4.30;;
68910;SDS011;55953;51.650;-0.522;2023-02-24T10:45:58;11.10;;;4.30;;
68910;SDS011;55953;51.650;-0.522;2023-02-24T10:48:55;7.60;;;3.80;;
68910;SDS011;55953;51.650;-0.522;2023-02-24T10:51:35;8.80;;;3.90;;
68910;SDS011;55953;51.650;-0.522;2023-02-24T10:54:18;9.50;;;3.90;;
68910;SDS011;55953;51.650;-0.522;2023-02-24T10:56:51;8.50;;;4.50;;
68910;SDS011;55953;51.650;-0.522;2023-02-24T10:59:57;11.60;;;4.30;;
68910;SDS011;55953;51.650;-0.522;2023-02-24T11:02:52;8.80;;;4.20;;
68910;SDS011;55953;51.650;-0.522;2023-02-24T11:05:42;8.60;;;4.50;;
68910;SDS011;55953;51.650;-0.522;2023-02-24T11:08:35;9.80;;;4.60;;
68910;SDS011;55953;51.650;-0.522;2023-02-24T11:11:11;14.10;;;4.50;;
68910;SDS011;55953;51.650;-0.522;2023-02-24T11:13:59;8.80;;;4.20;;
68910;SDS011;55953;51.650;-0.522;2023-02-24T11:19:45;12.30;;;4.40;;
68910;SDS011;55953;51.650;-0.522;2023-02-24T11:22:21;10.10;;;4.30;;
68910;SDS011;55953;51.650;-0.522;2023-02-24T11:24:52;6.90;;;4.00;;
68910;SDS011;55953;51.650;-0.522;2023-02-24T11:27:22;6.50;;;3.90;;
68910;SDS011;55953;51.650;-0.522;2023-02-24T11:32:55;8.00;;;4.30;;
68910;SDS011;55953;51.650;-0.522;2023-02-24T11:35:37;13.40;;;4.90;;
68910;SDS011;55953;51.650;-0.522;2023-02-24T11:41:48;9.20;;;4.30;;
68910;SDS011;55953;51.650;-0.522;2023-02-24T11:44:30;9.10;;;4.20;;
68910;SDS011;55953;51.650;-0.522;2023-02-24T11:47:10;7.40;;;3.70;;
68910;SDS011;55953;51.650;-0.522;2023-02-24T11:50:02;5.90;;;3.60;;
68910;SDS011;55953;51.650;-0.522;2023-02-24T11:52:48;7.00;;;3.70;;
68910;SDS011;55953;51.650;-0.522;2023-02-24T11:58:23;5.70;;;3.80;;
68910;SDS011;55953;51.650;-0.522;2023-02-24T12:01:27;8.60;;;3.90;;
68910;SDS011;55953;51.650;-0.522;2023-02-24T12:09:48;7.90;;;3.80;;
68910;SDS011;55953;51.650;-0.522;2023-02-24T12:12:53;7.50;;;3.60;;
68910;SDS011;55953;51.650;-0.522;2023-02-24T12:15:42;6.40;;;3.90;;
68910;SDS011;55953;51.650;-0.522;2023-02-24T12:18:35;6.90;;;3.90;;
68910;SDS011;55953;51.650;-0.522;2023-02-24T12:21:30;8.20;;;3.90;;
68910;SDS011;55953;51.650;-0.522;2023-02-24T12:24:05;8.20;;;4.00;;
68910;SDS011;55953;51.650;-0.522;2023-02-24T12:26:56;6.90;;;3.80;;
68910;SDS011;55953;51.650;-0.522;2023-02-24T12:33:49;8.90;;;4.00;;
68910;SDS011;55953;51.650;-0.522;2023-02-24T12:39:28;10.20;;;4.00;;
68910;SDS011;55953;51.650;-0.522;2023-02-24T12:48:12;5.40;;;3.50;;
68910;SDS011;55953;51.650;-0.522;2023-02-24T12:53:26;7.40;;;2.40;;
68910;SDS011;55953;51.650;-0.522;2023-02-24T12:59:05;7.80;;;2.10;;
68910;SDS011;55953;51.650;-0.522;2023-02-24T13:01:50;7.90;;;2.00;;
68910;SDS011;55953;51.650;-0.522;2023-02-24T13:11:08;6.90;;;2.30;;
68910;SDS011;55953;51.650;-0.522;2023-02-24T13:13:55;11.70;;;2.60;;
68910;SDS011;55953;51.650;-0.522;2023-02-24T13:16:34;10.90;;;2.60;;
68910;SDS011;55953;51.650;-0.522;2023-02-24T13:24:40;8.30;;;2.50;;
68910;SDS011;55953;51.650;-0.522;2023-02-24T13:29:45;8.60;;;2.60;;
68910;SDS011;55953;51.650;-0.522;2023-02-24T13:32:31;10.80;;;2.90;;
68910;SDS011;55953;51.650;-0.522;2023-02-24T13:35:27;9.20;;;2.30;;
68910;SDS011;55953;51.650;-0.522;2023-02-24T13:37:52;9.90;;;2.60;;
68910;SDS011;55953;51.650;-0.522;2023-02-24T13:40:23;9.50;;;2.70;;
68910;SDS011;55953;51.650;-0.522;2023-02-24T13:45:32;9.80;;;3.00;;
68910;SDS011;55953;51.650;-0.522;2023-02-24T13:54:00;6.90;;;3.00;;
68910;SDS011;55953;51.650;-0.522;2023-02-24T14:03:09;8.20;;;3.00;;
68910;SDS011;55953;51.650;-0.522;2023-02-24T14:05:40;8.50;;;3.00;;
68910;SDS011;55953;51.650;-0.522;2023-02-24T14:08:20;7.30;;;3.00;;
68910;SDS011;55953;51.650;-0.522;2023-02-24T14:10:56;7.40;;;3.30;;
68910;SDS011;55953;51.650;-0.522;2023-02-24T14:13:28;8.40;;;2.50;;
68910;SDS011;55953;51.650;-0.522;2023-02-24T14:16:06;7.20;;;2.60;;
68910;SDS011;55953;51.650;-0.522;2023-02-24T14:18:39;8.30;;;2.60;;
68910;SDS011;55953;51.650;-0.522;2023-02-24T14:21:19;9.80;;;3.00;;
68910;SDS011;55953;51.650;-0.522;2023-02-24T14:24:00;9.20;;;2.80;;
68910;SDS011;55953;51.650;-0.522;2023-02-24T14:26:49;5.50;;;2.20;;
68910;SDS011;55953;51.650;-0.522;2023-02-24T14:29:21;7.00;;;2.40;;
68910;SDS011;55953;51.650;-0.522;2023-02-24T14:31:54;10.40;;;2.50;;
68910;SDS011;55953;51.650;-0.522;2023-02-24T14:34:25;5.70;;;2.10;;
68910;SDS011;55953;51.650;-0.522;2023-02-24T14:36:57;11.50;;;2.30;;
68910;SDS011;55953;51.650;-0.522;2023-02-24T14:39:29;11.10;;;2.40;;
68910;SDS011;55953;51.650;-0.522;2023-02-24T14:44:49;8.20;;;2.00;;
68910;SDS011;55953;51.650;-0.522;2023-02-24T14:47:21;8.10;;;1.90;;
68910;SDS011;55953;51.650;-0.522;2023-02-24T14:50:02;6.90;;;2.60;;
68910;SDS011;55953;51.650;-0.522;2023-02-24T14:52:39;5.10;;;2.10;;
68910;SDS011;55953;51.650;-0.522;2023-02-24T14:55:19;18.50;;;5.40;;
68910;SDS011;55953;51.650;-0.522;2023-02-24T15:00:45;6.90;;;2.70;;
68910;SDS011;55953;51.650;-0.522;2023-02-24T15:05:59;8.70;;;2.40;;
68910;SDS011;55953;51.650;-0.522;2023-02-24T15:08:55;7.80;;;2.50;;
68910;SDS011;55953;51.650;-0.522;2023-02-24T15:11:29;5.70;;;2.10;;
68910;SDS011;55953;51.650;-0.522;2023-02-24T15:14:01;10.20;;;2.40;;
68910;SDS011;55953;51.650;-0.522;2023-02-24T15:16:43;8.80;;;2.20;;
68910;SDS011;55953;51.650;-0.522;2023-02-24T15:19:26;6.50;;;2.30;;
68910;SDS011;55953;51.650;-0.522;2023-02-24T15:21:59;10.80;;;2.20;;
68910;SDS011;55953;51.650;-0.522;2023-02-24T15:24:30;7.50;;;2.10;;
68910;SDS011;55953;51.650;-0.522;2023-02-24T15:27:18;9.30;;;2.60;;
68910;SDS011;55953;51.650;-0.522;2023-02-24T15:30:20;9.10;;;2.40;;
68910;SDS011;55953;51.650;-0.522;2023-02-24T15:33:10;8.40;;;2.10;;
68910;SDS011;55953;51.650;-0.522;2023-02-24T15:35:46;9.30;;;2.00;;
68910;SDS011;55953;51.650;-0.522;2023-02-24T15:38:34;9.40;;;2.40;;
68910;SDS011;55953;51.650;-0.522;2023-02-24T15:41:06;10.20;;;2.40;;
68910;SDS011;55953;51.650;-0.522;2023-02-24T15:48:56;7.30;;;2.30;;
68910;SDS011;55953;51.650;-0.522;2023-02-24T15:51:37;8.80;;;2.30;;
68910;SDS011;55953;51.650;-0.522;2023-02-24T15:54:14;10.50;;;2.60;;
68910;SDS011;55953;51.650;-0.522;2023-02-24T15:56:47;9.70;;;2.30;;
68910;SDS011;55953;51.650;-0.522;2023-02-24T15:59:17;13.20;;;2.30;;
68910;SDS011;55953;51.650;-0.522;2023-02-24T16:01:47;7.70;;;2.50;;
68910;SDS011;55953;51.650;-0.522;2023-02-24T16:04:15;9.90;;;2.70;;
68910;SDS011;55953;51.650;-0.522;2023-02-24T16:06:45;9.50;;;2.70;;
68910;SDS011;55953;51.650;-0.522;2023-02-24T16:09:33;10.50;;;2.60;;
68910;SDS011;55953;51.650;-0.522;2023-02-24T16:12:06;9.80;;;3.20;;
68910;SDS011;55953;51.650;-0.522;2023-02-24T16:14:39;11.30;;;3.10;;
68910;SDS011;55953;51.650;-0.522;2023-02-24T16:17:39;10.50;;;2.80;;
68910;SDS011;55953;51.650;-0.522;2023-02-24T16:20:22;10.30;;;2.80;;
68910;SDS011;55953;51.650;-0.522;2023-02-24T16:22:57;7.10;;;2.20;;
68910;SDS011;55953;51.650;-0.522;2023-02-24T16:25:28;7.30;;;2.10;;
68910;SDS011;55953;51.650;-0.522;2023-02-24T16:28:00;10.60;;;2.00;;
68910;SDS011;55953;51.650;-0.522;2023-02-24T16:30:28;11.00;;;2.40;;
68910;SDS011;55953;51.650;-0.522;2023-02-24T16:32:58;8.00;;;2.00;;
68910;SDS011;55953;51.650;-0.522;2023-02-24T16:35:27;9.40;;;2.30;;
68910;SDS011;55953;51.650;-0.522;2023-02-24T16:37:55;12.50;;;2.50;;
68910;SDS011;55953;51.650;-0.522;2023-02-24T16:40:27;10.40;;;2.90;;
68910;SDS011;55953;51.650;-0.522;2023-02-24T16:43:00;13.90;;;2.70;;
68910;SDS011;55953;51.650;-0.522;2023-02-24T16:45:28;13.70;;;3.10;;
68910;SDS011;55953;51.650;-0.522;2023-02-24T16:47:57;9.20;;;2.70;;
68910;SDS011;55953;51.650;-0.522;2023-02-24T16:50:34;9.60;;;2.40;;
68910;SDS011;55953;51.650;-0.522;2023-02-24T16:53:06;6.80;;;2.70;;
68910;SDS011;55953;51.650;-0.522;2023-02-24T16:55:34;7.70;;;2.80;;
68910;SDS011;55953;51.650;-0.522;2023-02-24T16:58:02;8.20;;;2.90;;
68910;SDS011;55953;51.650;-0.522;2023-02-24T17:00:56;8.90;;;3.10;;
68910;SDS011;55953;51.650;-0.522;2023-02-24T17:03:30;7.60;;;2.40;;
68910;SDS011;55953;51.650;-0.522;2023-02-24T17:06:04;12.60;;;2.80;;
68910;SDS011;55953;51.650;-0.522;2023-02-24T17:08:32;9.90;;;2.70;;
68910;SDS011;55953;51.650;-0.522;2023-02-24T17:11:00;10.80;;;2.90;;
68910;SDS011;55953;51.650;-0.522;2023-02-24T17:13:29;8.30;;;2.90;;
68910;SDS011;55953;51.650;-0.522;2023-02-24T17:15:57;10.50;;;3.30;;
68910;SDS011;55953;51.650;-0.522;2023-02-24T17:18:26;9.60;;;2.90;;
68910;SDS011;55953;51.650;-0.522;2023-02-24T17:20:54;8.90;;;2.80;;
68910;SDS011;55953;51.650;-0.522;2023-02-24T17:23:21;8.40;;;2.60;;
68910;SDS011;55953;51.650;-0.522;2023-02-24T17:25:52;8.60;;;2.50;;
68910;SDS011;55953;51.650;-0.522;2023-02-24T17:28:23;9.50;;;2.70;;
68910;SDS011;55953;51.650;-0.522;2023-02-24T17:30:51;8.40;;;2.30;;
68910;SDS011;55953;51.650;-0.522;2023-02-24T17:33:19;8.80;;;2.40;;
68910;SDS011;55953;51.650;-0.522;2023-02-24T17:35:47;8.30;;;2.70;;
68910;SDS011;55953;51.650;-0.522;2023-02-24T17:38:19;15.00;;;2.80;;
68910;SDS011;55953;51.650;-0.522;2023-02-24T17:40:49;7.20;;;2.20;;
68910;SDS011;55953;51.650;-0.522;2023-02-24T17:43:17;8.30;;;2.20;;